Time;durP1;ratioP1;P1;durP2;ratioP2;P2;SDS_P1;SDS_P2;PMS_P1;PMS_P2;Temp;Humidity;BMP_temperature;BMP_pressure;BME280_temperature;BME280_humidity;BME280_pressure;Samples;Min_cycle;Max_cycle;Signal;HPM_P1;HPM_P2
2023/11/29 07:24:45;;;;;;;;;6.25;5.75;;;;;20.27;42.81;100459.34;4944854;26;45610;-74
2023/11/29 07:27:11;;;;;;;;;8.00;7.00;;;;;20.31;42.53;100479.13;4951240;28;46940;-74
2023/11/29 07:29:37;;;;;;;;;7.67;7.67;;;;;20.32;42.45;100475.50;4947021;28;45477;-77
2023/11/29 07:32:04;;;;;;;;;8.25;7.50;;;;;20.39;42.14;100480.88;4937616;28;45332;-77
2023/11/29 07:34:29;;;;;;;;;8.25;6.75;;;;;20.36;42.60;100478.59;4939677;28;45489;-77
2023/11/29 07:36:54;;;;;;;;;7.00;7.00;;;;;20.26;42.44;100465.63;4937570;28;47004;-77
2023/11/29 07:39:20;;;;;;;;;8.50;7.00;;;;;20.18;42.44;100455.94;4936868;28;45374;-73
2023/11/29 07:41:49;;;;;;;;;6.00;6.00;;;;;20.36;42.54;100478.59;4940031;28;45420;-77
2023/11/29 07:44:15;;;;;;;;;7.00;7.00;;;;;20.34;42.24;100478.78;4948427;28;45498;-77
2023/11/29 07:46:41;;;;;;;;;7.33;7.33;;;;;20.26;42.53;100465.63;4952702;28;45406;-76
2023/11/29 07:49:06;;;;;;;;;7.75;7.75;;;;;20.36;42.29;100484.69;4951708;28;45533;-76
2023/11/29 07:51:32;;;;;;;;;3.75;3.00;;;;;20.37;42.42;100488.16;4956058;28;45501;-73
2023/11/29 07:53:57;;;;;;;;;8.00;7.25;;;;;20.33;42.34;100477.13;4950811;28;45501;-75
2023/11/29 07:56:23;;;;;;;;;6.75;5.75;;;;;20.35;42.54;100477.75;4937199;28;47046;-73
2023/11/29 07:58:48;;;;;;;;;8.00;7.00;;;;;20.32;42.49;100469.38;4938900;28;45516;-74
2023/11/29 08:01:13;;;;;;;;;4.50;2.50;;;;;20.33;42.48;100477.13;4937712;28;45686;-73
2023/11/29 08:03:39;;;;;;;;;9.50;8.00;;;;;20.35;42.23;100480.41;4936456;28;45404;-73
2023/11/29 08:06:06;;;;;;;;;9.75;8.25;;;;;20.27;42.32;100473.38;4936736;28;47150;-74
2023/11/29 08:08:33;;;;;;;;;9.50;7.25;;;;;20.35;42.01;100480.41;4936158;28;45860;-74
2023/11/29 08:10:58;;;;;;;;;9.25;7.00;;;;;20.35;42.33;100471.69;4936416;28;45347;-74
2023/11/29 08:13:24;;;;;;;;;8.00;6.75;;;;;20.36;42.33;100470.66;4936506;28;45291;-74
2023/11/29 08:15:49;;;;;;;;;7.50;7.50;;;;;20.24;42.41;100447.31;4935362;28;46920;-74
2023/11/29 08:18:14;;;;;;;;;9.75;8.00;;;;;20.34;42.40;100468.22;4936347;28;45405;-75
2023/11/29 08:20:40;;;;;;;;;10.25;9.00;;;;;20.36;42.19;100470.66;4934873;28;45481;-75
2023/11/29 08:23:06;;;;;;;;;10.75;8.75;;;;;20.33;42.63;100466.56;4938694;28;45358;-75
2023/11/29 08:25:31;;;;;;;;;11.00;7.00;;;;;20.36;42.38;100465.38;4937409;28;46239;-75
2023/11/29 08:27:56;;;;;;;;;8.00;7.00;;;;;20.35;42.11;100464.56;4956075;28;45246;-74
2023/11/29 08:30:22;;;;;;;;;7.75;6.25;;;;;20.36;42.46;100465.38;4955512;28;45369;-75
2023/11/29 08:32:47;;;;;;;;;8.50;8.50;;;;;20.36;42.23;100462.72;4937734;28;45453;-75
2023/11/29 08:35:13;;;;;;;;;10.00;9.00;;;;;20.34;42.64;100455.00;4951069;28;46748;-75
2023/11/29 08:37:38;;;;;;;;;8.00;8.00;;;;;20.34;41.84;100465.56;4957112;28;45871;-74
2023/11/29 08:40:05;;;;;;;;;6.00;6.00;;;;;20.27;42.17;100460.16;4956825;28;45813;-74
2023/11/29 08:42:30;;;;;;;;;9.25;8.50;;;;;20.34;42.06;100470.84;4957294;28;45505;-75
2023/11/29 08:44:56;;;;;;;;;8.50;7.50;;;;;20.34;42.50;100462.09;4956900;28;45412;-74
2023/11/29 08:47:21;;;;;;;;;7.25;7.25;;;;;20.26;42.27;100447.13;4957081;28;45324;-74
2023/11/29 08:49:46;;;;;;;;;8.00;8.00;;;;;20.33;42.06;100456.00;4957005;28;45382;-75
2023/11/29 08:52:11;;;;;;;;;8.25;7.00;;;;;20.34;42.26;100448.88;4956289;28;47318;-73
2023/11/29 08:54:37;;;;;;;;;7.00;7.00;;;;;20.27;42.45;100444.31;4956436;28;59719;-74
2023/11/29 08:57:02;;;;;;;;;7.50;7.00;;;;;20.31;42.30;100458.00;4956277;28;53914;-74
2023/11/29 08:59:28;;;;;;;;;8.25;7.75;;;;;20.34;42.44;100467.38;4956308;28;45416;-74
2023/11/29 09:01:53;;;;;;;;;8.00;8.00;;;;;20.32;42.23;100459.66;4956945;28;45263;-75
2023/11/29 09:04:18;;;;;;;;;8.00;8.00;;;;;20.30;42.30;100453.69;4955373;28;46186;-74
2023/11/29 09:06:44;;;;;;;;;8.50;7.50;;;;;20.19;42.50;100433.84;4956231;28;45254;-75
2023/11/29 09:09:09;;;;;;;;;7.00;6.75;;;;;20.33;42.32;100439.31;4956635;28;45277;-75
2023/11/29 09:11:34;;;;;;;;;7.75;7.75;;;;;20.32;42.10;100448.25;4956690;28;45395;-74
2023/11/29 09:14:00;;;;;;;;;9.00;7.25;;;;;20.24;42.28;100436.75;4956512;28;46786;-74
2023/11/29 09:16:25;;;;;;;;;7.25;7.25;;;;;20.27;42.29;100440.88;4956487;28;45227;-74
2023/11/29 09:18:51;;;;;;;;;8.50;7.25;;;;;20.29;42.57;100442.34;4956696;28;45294;-74
2023/11/29 09:21:17;;;;;;;;;7.00;7.00;;;;;20.33;42.24;100448.06;4956380;28;45206;-74
2023/11/29 09:23:42;;;;;;;;;6.75;6.50;;;;;20.32;41.95;100446.44;4956441;28;47079;-74
2023/11/29 09:26:07;;;;;;;;;11.50;8.25;;;;;20.33;42.53;100441.94;4956788;28;45258;-75
2023/11/29 09:28:32;;;;;;;;;8.00;8.00;;;;;20.32;42.14;100449.09;4956409;28;45236;-75
2023/11/29 09:31:00;;;;;;;;;8.75;7.25;;;;;20.32;42.27;100449.09;4956482;28;45321;-75
2023/11/29 09:33:26;;;;;;;;;6.75;6.75;;;;;20.29;42.26;100439.69;4956308;28;47106;-73
2023/11/29 09:35:52;;;;;;;;;7.75;7.75;;;;;20.32;42.51;100449.09;4955864;28;45338;-75
2023/11/29 09:38:18;;;;;;;;;7.50;7.00;;;;;20.33;42.53;100455.16;4956322;28;45523;-73
2023/11/29 09:40:43;;;;;;;;;7.25;6.50;;;;;20.32;42.31;100449.09;4956170;28;45365;-73
2023/11/29 09:43:09;;;;;;;;;9.25;8.00;;;;;20.32;42.46;100445.59;4956123;28;46242;-73
2023/11/29 09:45:35;;;;;;;;;9.50;8.00;;;;;20.32;42.39;100435.03;4956071;28;45350;-72
2023/11/29 09:48:01;;;;;;;;;8.00;8.00;;;;;20.25;42.15;100422.53;4956321;28;45411;-73
2023/11/29 09:50:29;;;;;;;;;7.00;6.50;;;;;20.33;42.48;100439.31;4955713;28;45332;-75
2023/11/29 09:52:57;;;;;;;;;7.75;7.75;;;;;20.32;42.32;100427.94;4956068;28;46255;-75
2023/11/29 09:55:23;;;;;;;;;10.00;8.25;;;;;20.28;42.50;100424.81;4956224;28;45730;-73
2023/11/29 09:57:48;;;;;;;;;7.00;7.00;;;;;20.26;42.36;100420.72;4956105;28;45381;-73
2023/11/29 10:00:15;;;;;;;;;9.00;9.00;;;;;20.22;42.44;100409.69;4953866;28;45430;-75
2023/11/29 10:02:41;;;;;;;;;7.50;6.25;;;;;20.32;42.33;100421.84;4936645;28;46148;-75
2023/11/29 10:05:08;;;;;;;;;7.25;7.25;;;;;20.28;42.36;100413.44;4951235;28;45306;-75
2023/11/29 10:07:34;;;;;;;;;9.75;7.75;;;;;20.26;42.53;100410.16;4935258;28;45315;-75
2023/11/29 10:10:01;;;;;;;;;7.50;6.50;;;;;20.25;42.53;100406.69;4937829;28;45280;-75
2023/11/29 10:12:27;;;;;;;;;9.50;8.00;;;;;20.25;42.29;100404.03;4939599;28;46587;-74
2023/11/29 10:14:54;;;;;;;;;8.00;7.00;;;;;20.23;42.42;100399.94;4939743;28;45363;-73
2023/11/29 10:17:20;;;;;;;;;6.00;5.00;;;;;20.23;42.15;100397.28;4940162;28;45349;-73
2023/11/29 10:19:46;;;;;;;;;7.00;7.00;;;;;20.31;42.18;100405.16;4939453;28;45374;-74
2023/11/29 10:22:19;;;;;;;;;10.00;8.75;;;;;20.31;42.40;100407.78;4939418;28;47183;-72
2023/11/29 10:24:44;;;;;;;;;7.75;7.75;;;;;20.31;42.09;100407.78;4939538;28;45320;-73
2023/11/29 10:27:11;;;;;;;;;8.67;7.00;;;;;20.23;42.50;100392.00;4943190;28;45277;-74
2023/11/29 10:29:36;;;;;;;;;8.00;6.25;;;;;20.26;42.29;100386.38;4959160;28;45411;-74
2023/11/29 10:32:04;;;;;;;;;8.75;8.50;;;;;20.31;42.08;100391.13;4958883;28;45614;-74
2023/11/29 10:34:33;;;;;;;;;7.00;6.00;;;;;20.31;42.14;100396.41;4958760;28;45908;-74
2023/11/29 10:36:58;;;;;;;;;7.00;6.50;;;;;20.24;42.27;100381.28;4958936;28;45402;-73
2023/11/29 10:39:27;;;;;;;;;6.50;6.00;;;;;20.28;42.27;100387.84;4955549;28;45415;-74
2023/11/29 10:41:56;;;;;;;;;10.00;8.75;;;;;20.31;42.54;100386.66;4939455;28;47179;-73
2023/11/29 10:44:28;;;;;;;;;7.00;6.00;;;;;20.31;42.42;100381.38;4939158;28;45433;-74
2023/11/29 10:47:02;;;;;;;;;9.00;6.00;;;;;20.30;42.31;100382.38;4939559;28;45350;-73
2023/11/29 10:49:35;;;;;;;;;8.00;6.25;;;;;20.32;42.40;100382.19;4939053;28;45493;-74
2023/11/29 10:52:01;;;;;;;;;10.25;8.00;;;;;20.32;42.13;100384.84;4938318;28;46329;-74
2023/11/29 10:54:27;;;;;;;;;8.00;8.00;;;;;20.20;42.20;100371.22;4939186;28;45409;-76
2023/11/29 10:56:54;;;;;;;;;7.25;7.00;;;;;20.32;42.37;100379.56;4939389;28;45310;-76
2023/11/29 10:59:25;;;;;;;;;6.00;6.00;;;;;20.32;42.23;100369.00;4939669;28;45520;-77
2023/11/29 11:01:58;;;;;;;;;8.50;6.75;;;;;20.16;42.24;100341.72;4939068;28;46447;-76
2023/11/29 11:04:33;;;;;;;;;7.00;7.00;;;;;20.29;42.43;100370.16;4938661;28;45362;-75
2023/11/29 11:07:02;;;;;;;;;7.00;5.00;;;;;20.32;42.48;100375.09;4939132;28;45756;-77
2023/11/29 11:09:36;;;;;;;;;5.50;5.50;;;;;20.29;42.63;100365.72;4938984;28;45557;-77
2023/11/29 11:12:06;;;;;;;;;7.00;6.75;;;;;20.32;42.47;100369.81;4939116;28;46009;-77
2023/11/29 11:14:37;;;;;;;;;8.00;8.00;;;;;20.32;42.62;100359.25;4948301;28;45285;-77
2023/11/29 11:17:09;;;;;;;;;10.00;8.75;;;;;20.33;42.05;100363.50;4958401;28;45325;-77
2023/11/29 11:19:35;;;;;;;;;7.75;6.25;;;;;20.33;42.26;100366.16;4958430;28;45215;-77
2023/11/29 11:22:05;;;;;;;;;6.00;6.00;;;;;20.34;42.28;100356.41;4957063;28;46073;-76
2023/11/29 11:24:55;;;;;;;;;7.00;7.00;;;;;20.33;42.14;100345.03;4957001;28;45369;-75
2023/11/29 11:27:35;;;;;;;;;8.75;8.75;;;;;20.34;42.30;100343.22;4958210;28;45452;-76
2023/11/29 11:30:19;;;;;;;;;6.75;6.75;;;;;20.34;42.05;100340.56;4958259;28;45389;-76
2023/11/29 11:32:49;;;;;;;;;9.00;6.75;;;;;20.34;42.30;100332.63;4957438;28;47106;-76
2023/11/29 11:35:18;;;;;;;;;7.75;7.75;;;;;20.33;42.33;100328.34;4956873;28;45453;-76
2023/11/29 11:37:44;;;;;;;;;9.50;7.00;;;;;20.31;41.84;100325.91;4957118;28;46059;-76
2023/11/29 11:40:11;;;;;;;;;8.25;8.25;;;;;20.33;42.31;100326.53;4957518;28;45396;-73
2023/11/29 11:42:37;;;;;;;;;7.00;6.00;;;;;20.33;42.10;100321.25;4955316;28;46128;-75
2023/11/29 11:45:04;;;;;;;;;6.50;6.50;;;;;20.33;42.14;100310.69;4955462;28;45438;-76
2023/11/29 11:47:30;;;;;;;;;8.50;8.50;;;;;20.35;42.09;100311.31;4957185;28;45448;-75
2023/11/29 11:49:56;;;;;;;;;7.00;6.00;;;;;20.33;42.59;100299.28;4957385;28;45401;-75
2023/11/29 11:52:21;;;;;;;;;6.00;6.00;;;;;20.36;42.33;100294.47;4955488;28;46069;-75
2023/11/29 11:54:47;;;;;;;;;9.50;6.25;;;;;20.34;42.46;100288.56;4957240;28;45449;-76
2023/11/29 11:57:15;;;;;;;;;5.00;3.75;;;;;20.29;42.34;100277.72;4956792;28;45496;-76
2023/11/29 11:59:40;;;;;;;;;8.50;7.25;;;;;20.34;42.44;100277.97;4957129;28;45484;-76
2023/11/29 12:02:06;;;;;;;;;7.25;7.25;;;;;20.39;42.50;100293.28;4956327;28;46862;-75
2023/11/29 12:04:32;;;;;;;;;7.00;6.75;;;;;20.39;42.66;100299.38;4956424;28;45513;-74
2023/11/29 12:06:58;;;;;;;;;5.33;3.00;;;;;20.10;42.76;100263.19;4956717;28;45377;-77
2023/11/29 12:09:26;;;;;;;;;6.00;6.00;;;;;20.38;42.75;100299.56;4950944;28;45593;-76
2023/11/29 12:12:08;;;;;;;;;7.25;6.75;;;;;20.38;42.56;100287.16;4953220;28;46121;-77
2023/11/29 12:14:33;;;;;;;;;7.67;5.67;;;;;20.36;42.87;100275.97;4974315;28;45453;-77
2023/11/29 12:16:59;;;;;;;;;7.00;6.00;;;;;20.39;42.73;100283.53;4956295;28;45568;-76
2023/11/29 12:19:24;;;;;;;;;6.33;6.00;;;;;20.32;42.93;100266.78;4957123;28;45493;-76
2023/11/29 12:21:50;;;;;;;;;6.67;6.67;;;;;20.13;42.89;100229.34;4956778;28;46387;-76
2023/11/29 12:24:15;;;;;;;;;6.00;6.00;;;;;20.39;42.74;100270.31;4956915;28;45529;-77
2023/11/29 12:26:40;;;;;;;;;7.00;7.00;;;;;20.41;42.64;100278.06;4955022;28;45424;-75
2023/11/29 12:29:06;;;;;;;;;6.00;6.00;;;;;20.42;42.55;100273.59;4951219;28;45592;-76
2023/11/29 12:31:39;;;;;;;;;10.00;7.50;;;;;20.37;43.05;100272.34;4955655;28;45444;-78
2023/11/29 12:34:04;;;;;;;;;6.33;6.33;;;;;20.40;42.79;100276.44;4953361;28;45296;-78
2023/11/29 12:36:30;;;;;;;;;6.33;6.00;;;;;20.35;42.59;100273.53;4956861;28;45338;-76
2023/11/29 12:39:05;;;;;;;;;9.67;7.67;;;;;20.38;42.56;100271.31;4957264;28;45549;-75
2023/11/29 12:41:30;;;;;;;;;10.33;6.33;;;;;20.39;42.61;100274.78;4954295;28;47043;-75
2023/11/29 12:43:56;;;;;;;;;7.00;6.25;;;;;20.36;42.83;100261.94;4955572;28;45359;-75
2023/11/29 12:46:21;;;;;;;;;8.75;6.00;;;;;20.32;42.86;100255.38;4941872;28;45332;-76
2023/11/29 12:48:47;;;;;;;;;5.00;5.00;;;;;20.37;42.67;100258.31;4956006;28;45315;-75
2023/11/29 12:51:14;;;;;;;;;7.25;5.50;;;;;20.35;42.92;100253.19;4956032;28;46246;-75
2023/11/29 12:53:40;;;;;;;;;8.50;7.50;;;;;20.37;42.68;100253.84;4956137;28;45454;-74
2023/11/29 12:56:07;;;;;;;;;6.25;6.00;;;;;20.38;42.91;100255.47;4956281;28;45345;-76
2023/11/29 12:58:33;;;;;;;;;7.00;7.00;;;;;20.37;42.59;100248.56;4956141;28;45441;-75
2023/11/29 13:00:58;;;;;;;;;6.25;5.25;;;;;20.35;42.94;100239.97;4955540;28;47437;-75
2023/11/29 13:03:23;;;;;;;;;10.00;7.00;;;;;20.35;42.69;100236.53;4955753;28;55283;-76
2023/11/29 13:05:49;;;;;;;;;7.00;5.00;;;;;20.36;42.59;100233.69;4956242;28;45314;-74
2023/11/29 13:08:14;;;;;;;;;8.00;5.00;;;;;20.34;42.77;100227.78;4956085;28;45236;-75
2023/11/29 13:10:40;;;;;;;;;6.25;5.25;;;;;20.36;42.67;100230.22;4955837;28;45896;-76
2023/11/29 13:13:07;;;;;;;;;7.25;6.25;;;;;20.30;42.67;100221.22;4955737;28;45298;-75
2023/11/29 13:15:32;;;;;;;;;6.00;6.00;;;;;20.36;42.75;100217.03;4955591;28;45282;-73
2023/11/29 13:17:57;;;;;;;;;6.75;6.75;;;;;20.36;42.78;100220.47;4956827;28;45358;-73
2023/11/29 13:20:22;;;;;;;;;6.33;5.00;;;;;20.36;42.68;100217.03;4956119;28;45958;-72
2023/11/29 13:22:49;;;;;;;;;8.00;6.50;;;;;20.36;42.80;100211.75;4956286;28;45256;-74
2023/11/29 13:25:14;;;;;;;;;6.00;6.00;;;;;20.34;42.55;100211.94;4956694;28;45371;-74
2023/11/29 13:27:39;;;;;;;;;8.75;7.75;;;;;20.35;42.58;100204.84;4956398;28;45326;-75
2023/11/29 13:30:06;;;;;;;;;7.50;7.50;;;;;20.26;42.74;100193.53;4955814;28;57078;-74
2023/11/29 13:32:32;;;;;;;;;8.00;7.00;;;;;20.35;42.95;100199.53;4956417;28;45303;-72
2023/11/29 13:34:57;;;;;;;;;11.00;7.00;;;;;20.15;42.48;100171.03;4956357;28;45398;-73
2023/11/29 13:37:23;;;;;;;;;6.00;6.00;;;;;20.34;42.78;100204.00;4956414;28;45454;-72
2023/11/29 13:39:48;;;;;;;;;5.25;5.00;;;;;20.30;42.59;100192.16;4956263;28;46092;-74
2023/11/29 13:42:13;;;;;;;;;7.00;6.00;;;;;20.25;42.67;100191.88;4955870;28;45323;-73
2023/11/29 13:44:39;;;;;;;;;8.33;5.67;;;;;20.34;42.60;100201.38;4956911;28;45302;-74
2023/11/29 13:47:04;;;;;;;;;7.25;6.00;;;;;20.29;42.79;100190.53;4944293;28;45331;-74
2023/11/29 13:49:29;;;;;;;;;7.50;7.00;;;;;20.34;42.50;100193.44;4954947;28;47817;-73
2023/11/29 13:51:55;;;;;;;;;6.25;6.25;;;;;20.33;42.81;100185.69;4940218;28;45371;-73
2023/11/29 13:54:20;;;;;;;;;7.75;7.50;;;;;20.04;42.40;100140.59;4940536;28;45414;-74
2023/11/29 13:56:45;;;;;;;;;6.50;4.00;;;;;20.33;42.61;100181.22;4939864;28;45344;-73
2023/11/29 13:59:12;;;;;;;;;5.50;5.50;;;;;20.34;42.90;100182.88;4940287;28;45406;-73
2023/11/29 14:01:37;;;;;;;;;7.75;6.75;;;;;20.33;42.24;100183.88;4939857;28;45492;-74
2023/11/29 14:04:03;;;;;;;;;5.25;5.25;;;;;20.33;42.55;100175.94;4940133;28;45330;-74
2023/11/29 14:06:28;;;;;;;;;7.75;6.00;;;;;20.34;42.23;100168.84;4940279;28;45482;-74
2023/11/29 14:08:55;;;;;;;;;7.33;6.67;;;;;20.33;42.16;100170.66;4939464;28;54055;-74
2023/11/29 14:11:21;;;;;;;;;6.00;5.00;;;;;20.32;42.21;100171.69;4939687;28;45436;-71
2023/11/29 14:13:47;;;;;;;;;5.00;5.00;;;;;20.34;42.39;100166.19;4939480;28;45364;-74
2023/11/29 14:16:14;;;;;;;;;7.00;7.00;;;;;20.24;42.27;100159.38;4939658;28;45400;-73
2023/11/29 14:18:40;;;;;;;;;6.00;6.00;;;;;20.31;42.70;100167.38;4939125;28;47108;-74
2023/11/29 14:21:05;;;;;;;;;6.33;6.00;;;;;20.32;42.56;100174.31;4939228;28;45274;-74
2023/11/29 14:23:31;;;;;;;;;9.00;8.00;;;;;20.05;42.55;100121.94;4939509;28;45383;-74
2023/11/29 14:25:56;;;;;;;;;6.33;6.33;;;;;20.23;42.04;100147.16;4939394;28;45267;-73
2023/11/29 14:28:21;;;;;;;;;7.00;7.00;;;;;20.34;42.46;100160.91;4952516;28;46085;-74
2023/11/29 14:30:47;;;;;;;;;5.75;5.75;;;;;20.25;42.41;100142.53;4956862;28;63411;-73
2023/11/29 14:33:12;;;;;;;;;7.00;5.75;;;;;20.31;42.41;100162.09;4958698;28;45286;-73
2023/11/29 14:35:38;;;;;;;;;7.00;7.00;;;;;20.33;42.61;100165.38;4958888;28;45345;-74
2023/11/29 14:38:03;;;;;;;;;6.00;6.00;;;;;20.29;42.38;100157.00;4956345;28;45362;-75
2023/11/29 14:40:28;;;;;;;;;7.75;5.50;;;;;20.23;42.58;100149.81;4956022;28;46006;-75
2023/11/29 14:42:55;;;;;;;;;7.00;7.00;;;;;20.26;42.37;100156.56;4973475;28;45381;-76
2023/11/29 14:45:20;;;;;;;;;6.75;5.75;;;;;20.32;42.45;100163.75;4958905;28;45361;-75
2023/11/29 14:47:46;;;;;;;;;7.75;6.25;;;;;20.33;42.71;100159.25;4958525;28;46061;-75
2023/11/29 14:50:11;;;;;;;;;6.00;6.00;;;;;20.31;42.64;100159.47;4958763;28;45327;-75
2023/11/29 14:52:37;;;;;;;;;7.33;5.00;;;;;20.31;42.57;100156.00;4957575;28;45334;-75
2023/11/29 14:55:02;;;;;;;;;6.00;5.25;;;;;20.32;42.55;100162.91;4958903;28;45297;-75
2023/11/29 14:57:28;;;;;;;;;8.00;7.00;;;;;20.32;42.79;100165.56;4957739;28;47032;-75
2023/11/29 14:59:53;;;;;;;;;7.00;6.25;;;;;19.99;42.55;100100.72;4958638;28;45718;-75
2023/11/29 15:02:19;;;;;;;;;7.50;5.25;;;;;20.29;42.46;100153.53;4958634;28;46511;-75
2023/11/29 15:04:44;;;;;;;;;9.00;5.67;;;;;20.31;42.74;100148.06;4958242;28;54795;-76
2023/11/29 15:07:10;;;;;;;;;6.33;6.33;;;;;20.14;42.81;100122.69;4958505;28;46239;-75
2023/11/29 15:09:37;;;;;;;;;6.00;6.00;;;;;20.29;42.43;100143.81;4957592;28;55305;-76
2023/11/29 15:12:03;;;;;;;;;6.67;5.00;;;;;20.31;42.73;100142.78;4958606;28;45334;-76
2023/11/29 15:14:29;;;;;;;;;7.00;5.50;;;;;20.22;42.83;100129.69;4958605;28;45440;-75
2023/11/29 15:16:55;;;;;;;;;8.00;7.00;;;;;20.26;42.41;100133.59;4958268;28;46361;-76
2023/11/29 15:19:20;;;;;;;;;10.00;5.33;;;;;20.21;42.42;100124.59;4958535;28;45359;-75
2023/11/29 15:21:46;;;;;;;;;7.00;6.00;;;;;20.28;42.20;100130.75;4958372;28;45344;-75
2023/11/29 15:24:11;;;;;;;;;8.00;7.00;;;;;20.32;42.53;100133.88;4972802;28;45425;-75
2023/11/29 15:26:37;;;;;;;;;6.25;6.25;;;;;20.33;42.67;100132.84;4957983;28;58374;-75
2023/11/29 15:29:03;;;;;;;;;6.50;5.00;;;;;20.26;42.42;100130.97;4958091;28;45398;-75
2023/11/29 15:31:28;;;;;;;;;8.50;7.00;;;;;20.33;42.67;100130.19;4958362;28;45366;-75
2023/11/29 15:33:53;;;;;;;;;5.00;3.75;;;;;20.23;42.46;100112.00;4958288;28;45338;-75
2023/11/29 15:36:19;;;;;;;;;6.00;6.00;;;;;20.31;42.43;100124.28;4958337;28;47012;-76
2023/11/29 15:38:45;;;;;;;;;5.00;5.00;;;;;20.31;42.34;100122.47;4957963;28;45295;-75
2023/11/29 15:41:10;;;;;;;;;5.00;5.00;;;;;20.31;42.69;100122.47;4958539;28;45303;-75
2023/11/29 15:43:36;;;;;;;;;6.00;6.00;;;;;20.29;42.54;100117.38;4957974;28;45456;-75
2023/11/29 15:46:01;;;;;;;;;5.67;5.67;;;;;20.31;42.24;100122.47;4951293;28;52487;-76
2023/11/29 15:48:26;;;;;;;;;6.33;5.33;;;;;20.31;42.60;100121.66;4940429;28;45319;-76
2023/11/29 15:50:51;;;;;;;;;5.00;5.00;;;;;20.31;42.58;100116.38;4958125;28;45276;-76
2023/11/29 15:53:17;;;;;;;;;5.25;5.25;;;;;20.31;42.50;100106.63;4958266;28;45305;-75
2023/11/29 15:55:43;;;;;;;;;7.75;6.75;;;;;20.29;42.49;100106.00;4957801;28;46214;-76
2023/11/29 15:58:08;;;;;;;;;9.00;7.00;;;;;20.30;42.43;100107.63;4958268;28;45245;-75
2023/11/29 16:00:33;;;;;;;;;5.00;5.00;;;;;20.22;42.60;100091.91;4948841;28;45339;-75
2023/11/29 16:02:58;;;;;;;;;5.25;5.25;;;;;20.27;42.46;100089.53;4938364;28;49447;-76
2023/11/29 16:05:24;;;;;;;;;7.00;5.75;;;;;20.27;42.68;100089.53;4938529;28;51400;-75
2023/11/29 16:07:50;;;;;;;;;6.00;5.00;;;;;20.28;42.74;100084.03;4939065;28;45653;-75
2023/11/29 16:10:16;;;;;;;;;5.25;5.25;;;;;20.24;42.68;100079.31;4940245;28;45307;-76
2023/11/29 16:12:41;;;;;;;;;5.00;5.00;;;;;20.30;42.62;100083.84;4938236;28;45398;-76
2023/11/29 16:15:07;;;;;;;;;8.00;7.00;;;;;20.18;42.47;100071.13;4937733;28;47050;-74
2023/11/29 16:17:33;;;;;;;;;7.00;7.00;;;;;20.29;42.70;100085.69;4938841;28;45482;-76
2023/11/29 16:19:59;;;;;;;;;6.00;6.00;;;;;20.29;42.66;100082.22;4938919;28;45389;-73
2023/11/29 16:22:24;;;;;;;;;7.00;5.75;;;;;20.17;42.62;100066.84;4937560;28;45377;-73
2023/11/29 16:24:50;;;;;;;;;6.25;5.75;;;;;20.29;42.68;100092.78;4937881;28;45414;-75
2023/11/29 16:27:16;;;;;;;;;9.00;7.25;;;;;20.29;42.44;100085.69;4942446;28;45541;-73
2023/11/29 16:29:45;;;;;;;;;5.25;4.75;;;;;20.28;42.66;100084.03;4956952;28;45309;-74
2023/11/29 16:32:10;;;;;;;;;8.00;6.00;;;;;20.20;42.34;100076.22;4957322;28;45302;-73
2023/11/29 16:34:36;;;;;;;;;8.00;7.00;;;;;20.29;42.63;100084.84;4956822;28;46436;-74
2023/11/29 16:37:01;;;;;;;;;6.00;6.00;;;;;20.22;42.39;100076.06;4956683;28;45350;-75
2023/11/29 16:39:26;;;;;;;;;5.00;5.00;;;;;20.29;42.66;100084.84;4957360;28;45612;-76
2023/11/29 16:41:52;;;;;;;;;6.00;6.00;;;;;20.06;42.35;100049.63;4956945;28;45382;-72
2023/11/29 16:44:17;;;;;;;;;6.25;6.25;;;;;20.05;42.52;100044.53;4957111;28;45427;-75
2023/11/29 16:46:42;;;;;;;;;8.00;6.75;;;;;20.24;42.18;100079.31;4956736;28;45341;-76
2023/11/29 16:49:08;;;;;;;;;5.75;5.75;;;;;20.29;42.60;100082.22;4956997;28;45376;-75
2023/11/29 16:51:33;;;;;;;;;7.00;7.00;;;;;20.21;42.41;100069.94;4956343;28;53087;-76
2023/11/29 16:53:58;;;;;;;;;7.67;7.67;;;;;20.28;42.31;100073.47;4956637;28;46936;-75
2023/11/29 16:56:24;;;;;;;;;5.50;5.50;;;;;20.28;42.28;100062.91;4956494;28;45348;-75
2023/11/29 16:58:49;;;;;;;;;6.75;6.75;;;;;20.26;42.38;100067.56;4956941;28;45327;-76
2023/11/29 17:01:22;;;;;;;;;5.50;4.75;;;;;20.25;42.58;100054.53;4956977;28;45354;-75
2023/11/29 17:03:47;;;;;;;;;10.25;8.50;;;;;20.29;42.41;100061.09;4956389;28;47091;-76
2023/11/29 17:06:12;;;;;;;;;5.50;5.00;;;;;20.19;42.56;100040.25;4956278;28;45258;-75
2023/11/29 17:08:37;;;;;;;;;7.50;6.00;;;;;20.28;42.44;100054.16;4956491;28;54788;-75
2023/11/29 17:11:05;;;;;;;;;8.00;6.00;;;;;20.24;42.22;100048.44;4956511;28;45314;-75
2023/11/29 17:13:30;;;;;;;;;6.25;5.00;;;;;20.24;42.31;100045.81;4956389;28;46160;-75
2023/11/29 17:15:55;;;;;;;;;7.25;6.50;;;;;20.26;42.61;100048.25;4956646;28;45370;-75
2023/11/29 17:18:20;;;;;;;;;6.00;6.00;;;;;19.97;42.53;100008.50;4956575;28;45410;-75
2023/11/29 17:20:46;;;;;;;;;8.50;7.00;;;;;20.28;42.51;100062.06;4955623;28;45283;-75
2023/11/29 17:23:11;;;;;;;;;7.00;6.25;;;;;20.25;42.39;100058.00;4956100;28;46806;-76
2023/11/29 17:25:37;;;;;;;;;7.00;6.00;;;;;20.27;42.34;100066.53;4956194;28;45398;-74
2023/11/29 17:28:02;;;;;;;;;10.25;7.00;;;;;20.22;42.36;100053.06;4956433;28;45334;-75
2023/11/29 17:30:27;;;;;;;;;7.25;7.25;;;;;20.28;42.46;100059.44;4956503;28;45249;-76
2023/11/29 17:32:53;;;;;;;;;5.50;5.00;;;;;20.26;42.67;100059.63;4956296;28;46301;-79
2023/11/29 17:35:18;;;;;;;;;8.00;6.00;;;;;20.18;42.33;100051.81;4955640;28;57491;-77
2023/11/29 17:37:43;;;;;;;;;8.25;5.50;;;;;20.25;42.41;100063.28;4955543;28;45350;-78
2023/11/29 17:40:11;;;;;;;;;7.00;5.25;;;;;20.29;41.93;100069.00;4956517;28;45401;-76
2023/11/29 17:42:37;;;;;;;;;5.75;5.75;;;;;20.28;42.34;100062.06;4956526;28;46065;-82
2023/11/29 17:45:03;;;;;;;;;8.25;6.50;;;;;20.28;42.40;100067.38;4956775;28;45407;-78
2023/11/29 17:47:29;;;;;;;;;5.00;5.00;;;;;20.27;42.27;100060.47;4955632;28;45452;-79
2023/11/29 17:49:54;;;;;;;;;6.00;6.00;;;;;20.31;42.42;100071.44;4955983;28;45390;-80
2023/11/29 17:52:20;;;;;;;;;8.00;5.67;;;;;20.20;42.30;100052.44;4955611;28;45373;-74
2023/11/29 17:54:46;;;;;;;;;5.50;5.00;;;;;20.25;42.43;100058.00;4954501;28;45360;-76
2023/11/29 17:57:11;;;;;;;;;6.25;6.25;;;;;20.32;42.25;100063.34;4936903;28;45430;-76
2023/11/29 17:59:37;;;;;;;;;7.00;6.25;;;;;20.13;42.21;100033.06;4936793;28;45296;-75
2023/11/29 18:02:02;;;;;;;;;7.50;5.00;;;;;20.33;42.53;100056.22;4936948;28;45302;-75
2023/11/29 18:04:27;;;;;;;;;10.75;7.50;;;;;20.32;42.69;100058.06;4936576;28;45368;-75
2023/11/29 18:06:53;;;;;;;;;7.50;6.50;;;;;20.32;42.62;100058.06;4937083;28;45272;-74
2023/11/29 18:09:18;;;;;;;;;5.25;5.25;;;;;20.23;42.56;100044.16;4937060;28;45346;-75
2023/11/29 18:11:44;;;;;;;;;7.25;6.75;;;;;20.27;42.53;100055.19;4936331;28;60429;-73
2023/11/29 18:14:09;;;;;;;;;9.00;6.00;;;;;20.25;42.59;100049.25;4936712;28;45305;-75
2023/11/29 18:16:34;;;;;;;;;6.75;6.75;;;;;20.33;42.90;100056.22;4936970;28;45538;-74
2023/11/29 18:19:00;;;;;;;;;7.00;6.00;;;;;20.26;42.69;100054.34;4936526;28;45396;-76
2023/11/29 18:21:26;;;;;;;;;6.00;6.00;;;;;20.33;42.87;100064.16;4936344;28;58062;-75
2023/11/29 18:23:53;;;;;;;;;5.00;5.00;;;;;20.29;42.51;100058.44;4936409;28;45462;-74
2023/11/29 18:26:19;;;;;;;;;5.25;5.25;;;;;20.32;42.43;100062.53;4936746;28;45418;-75
2023/11/29 18:28:53;;;;;;;;;6.75;6.25;;;;;20.31;42.70;100061.72;4952814;28;45386;-75
2023/11/29 18:31:18;;;;;;;;;6.50;6.50;;;;;20.32;42.56;100059.88;4956011;28;45375;-74
2023/11/29 18:33:44;;;;;;;;;6.00;6.00;;;;;20.31;42.73;100060.88;4958818;28;45395;-75
2023/11/29 18:36:10;;;;;;;;;5.33;5.33;;;;;20.31;42.51;100066.16;4959358;28;45235;-75
2023/11/29 18:38:35;;;;;;;;;7.00;7.00;;;;;20.31;42.69;100059.06;4959511;28;45445;-76
2023/11/29 18:41:01;;;;;;;;;6.75;6.75;;;;;20.26;42.52;100056.16;4959154;28;45283;-75
2023/11/29 18:43:26;;;;;;;;;6.50;6.50;;;;;20.28;42.43;100060.25;4959127;28;45387;-72